Time;durP1;ratioP1;P1;durP2;ratioP2;P2;SDS_P1;SDS_P2;PMS_P1;PMS_P2;Temp;Humidity;BMP_temperature;BMP_pressure;BME280_temperature;BME280_humidity;BME280_pressure;Samples;Min_cycle;Max_cycle;Signal;HPM_P1;HPM_P2
2023/01/01 00:01:39;;;;;;;12.90;10.95;;;;;;;7.30;100.00;96512.31;5089099;28;20062;-66
2023/01/01 00:04:07;;;;;;;11.98;10.75;;;;;;;7.22;100.00;96509.38;5089257;28;20038;-64
2023/01/01 00:06:33;;;;;;;12.38;11.18;;;;;;;7.28;100.00;96501.09;5089543;28;20040;-71
2023/01/01 00:11:43;;;;;;;28.95;22.33;;;;;;;7.16;100.00;96505.38;5084432;28;20058;-71
2023/01/01 00:14:08;;;;;;;17.67;14.02;;;;;;;7.30;100.00;96493.97;5084051;28;20490;-71
2023/01/01 00:16:33;;;;;;;16.23;14.70;;;;;;;7.30;100.00;96486.97;5087760;28;20616;-71
2023/01/01 00:18:59;;;;;;;14.65;13.15;;;;;;;7.19;100.00;96481.59;5084272;28;20043;-71
2023/01/01 00:21:24;;;;;;;15.85;12.23;;;;;;;7.06;100.00;96472.84;5085203;28;20527;-70
2023/01/01 00:23:49;;;;;;;13.70;12.32;;;;;;;6.96;100.00;96472.63;5083910;28;20035;-71
2023/01/01 00:26:16;;;;;;;12.90;11.57;;;;;;;7.11;100.00;96465.56;5068871;28;20077;-74
2023/01/01 00:28:42;;;;;;;16.13;10.93;;;;;;;7.04;100.00;96459.88;5084147;28;20035;-73
2023/01/01 00:31:15;;;;;;;12.18;11.05;;;;;;;6.91;100.00;96459.00;5084735;28;20031;-69
2023/01/01 00:33:41;;;;;;;13.65;11.23;;;;;;;6.84;100.00;96472.50;5087297;28;20078;-69
2023/01/01 00:36:15;;;;;;;14.00;11.68;;;;;;;6.86;100.00;96467.19;5080451;28;20082;-69
2023/01/01 00:38:44;;;;;;;17.02;11.25;;;;;;;6.85;100.00;96466.31;5074940;28;20178;-70
2023/01/01 00:41:09;;;;;;;12.02;10.73;;;;;;;6.79;100.00;96471.09;5083599;28;20032;-73
2023/01/01 00:43:35;;;;;;;12.52;11.25;;;;;;;6.74;100.00;96477.47;5080100;28;20036;-68
2023/01/01 00:46:01;;;;;;;12.73;10.85;;;;;;;7.09;100.00;96464.84;5083252;28;20509;-73
2023/01/01 00:48:27;;;;;;;13.80;12.40;;;;;;;7.09;100.00;96483.16;5085874;28;20028;-73
2023/01/01 00:50:53;;;;;;;12.10;10.90;;;;;;;7.22;100.00;96473.53;5084146;28;20036;-72
2023/01/01 00:53:19;;;;;;;12.07;10.90;;;;;;;7.38;100.00;96483.81;5086178;28;20023;-72
2023/01/01 00:55:47;;;;;;;12.05;10.85;;;;;;;7.22;100.00;96491.03;5085179;28;20083;-72
2023/01/01 00:58:13;;;;;;;11.48;9.38;;;;;;;7.16;100.00;96511.44;5085443;28;20048;-71
2023/01/01 01:00:39;;;;;;;11.05;9.18;;;;;;;7.17;100.00;96494.78;5084633;28;20082;-70
2023/01/01 01:03:04;;;;;;;11.23;10.13;;;;;;;7.00;100.00;96510.78;5085172;28;20438;-67
2023/01/01 01:05:31;;;;;;;14.95;10.98;;;;;;;7.06;100.00;96497.28;5083085;28;20036;-71
2023/01/01 01:07:57;;;;;;;11.35;9.52;;;;;;;6.98;100.00;96505.63;5086486;28;20071;-72
2023/01/01 01:10:22;;;;;;;10.63;9.52;;;;;;;6.86;100.00;96506.44;5084422;28;20055;-71
2023/01/01 01:12:47;;;;;;;13.82;10.60;;;;;;;6.77;100.00;96507.88;5085319;28;20756;-72
2023/01/01 01:15:14;;;;;;;12.07;10.88;;;;;;;6.70;100.00;96506.56;5082867;28;20391;-71
2023/01/01 01:17:39;;;;;;;16.88;13.55;;;;;;;6.72;100.00;96515.16;5085742;28;20777;-72
2023/01/01 01:20:06;;;;;;;19.88;17.15;;;;;;;6.70;100.00;96517.88;5084787;28;20497;-72
2023/01/01 01:22:33;;;;;;;14.55;13.15;;;;;;;6.54;100.00;96520.63;5082350;28;20094;-69
2023/01/01 01:24:59;;;;;;;13.45;12.10;;;;;;;6.48;100.00;96533.25;5087700;28;20030;-63
2023/01/01 01:27:24;;;;;;;16.02;12.38;;;;;;;6.44;100.00;96514.28;5088631;28;20103;-62
2023/01/01 01:29:50;;;;;;;14.02;10.77;;;;;;;6.53;100.00;96516.34;5090608;28;20093;-63
2023/01/01 01:32:15;;;;;;;13.48;11.15;;;;;;;6.51;100.00;96517.34;5088951;28;20024;-63
2023/01/01 01:34:41;;;;;;;13.90;11.68;;;;;;;6.49;100.00;96522.69;5088610;28;20052;-63
2023/01/01 01:37:06;;;;;;;14.75;12.02;;;;;;;6.46;100.00;96528.09;5089242;28;20059;-63
2023/01/01 01:39:32;;;;;;;12.23;10.75;;;;;;;6.39;100.00;96530.25;5085308;28;20047;-71
2023/01/01 01:41:57;;;;;;;12.30;10.30;;;;;;;6.33;100.00;96535.06;5088148;28;20032;-69
2023/01/01 01:45:01;;;;;;;11.55;10.40;;;;;;;6.38;100.00;96546.06;5089763;28;20082;-74
2023/01/01 01:47:38;;;;;;;11.63;10.48;;;;;;;6.25;100.00;96536.34;5087068;28;20047;-73
2023/01/01 01:50:15;;;;;;;11.25;10.13;;;;;;;6.13;100.00;96547.56;5087996;28;20119;-72
2023/01/01 01:52:54;;;;;;;11.57;10.00;;;;;;;6.19;100.00;96544.56;5088216;28;20199;-72
2023/01/01 01:55:20;;;;;;;13.10;11.02;;;;;;;6.37;100.00;96547.00;5086494;28;20137;-72
2023/01/01 01:57:45;;;;;;;13.65;11.55;;;;;;;6.15;100.00;96537.84;5088215;28;20587;-73
2023/01/01 02:00:12;;;;;;;13.68;12.27;;;;;;;6.00;100.00;96529.16;5087897;28;20772;-68
2023/01/01 02:02:47;;;;;;;27.55;21.25;;;;;;;6.01;100.00;96531.69;5089828;28;20031;-71
2023/01/01 02:05:12;;;;;;;15.52;13.90;;;;;;;6.17;100.00;96533.38;5092822;28;20028;-71
2023/01/01 02:07:38;;;;;;;16.00;12.73;;;;;;;5.99;100.00;96517.00;5088029;28;20075;-71
2023/01/01 02:10:04;;;;;;;13.40;11.93;;;;;;;5.85;100.00;96539.59;5081648;28;20048;-71
2023/01/01 02:12:30;;;;;;;15.15;12.95;;;;;;;5.82;100.00;96536.31;5087228;28;20077;-71
2023/01/01 02:14:55;;;;;;;18.67;14.30;;;;;;;5.83;100.00;96543.22;5087551;28;20642;-71
2023/01/01 02:17:36;;;;;;;55.60;29.73;;;;;;;5.70;100.00;96536.13;5087625;28;20506;-64
2023/01/01 02:20:01;;;;;;;49.40;34.13;;;;;;;5.67;100.00;96551.13;5084310;28;20047;-72
2023/01/01 02:22:35;;;;;;;65.00;43.65;;;;;;;5.66;100.00;96557.28;5084461;28;20036;-75
2023/01/01 02:25:37;;;;;;;53.28;34.65;;;;;;;5.80;100.00;96543.38;5087054;28;20089;-75
2023/01/01 02:28:18;;;;;;;37.95;30.52;;;;;;;5.61;100.00;96554.09;5086381;28;20034;-75
2023/01/01 02:30:46;;;;;;;35.33;27.00;;;;;;;5.62;100.00;96559.22;5083787;28;20568;-75
2023/01/01 02:33:16;;;;;;;29.17;23.48;;;;;;;5.56;100.00;96562.19;5088195;28;20121;-75
2023/01/01 02:35:50;;;;;;;27.92;22.85;;;;;;;5.57;100.00;96566.50;5084870;28;20484;-75
2023/01/01 02:38:25;;;;;;;34.17;22.57;;;;;;;5.56;100.00;96562.19;5088435;28;20036;-67
2023/01/01 02:40:57;;;;;;;26.83;20.35;;;;;;;5.74;100.00;96576.81;5083869;28;20266;-64
2023/01/01 02:43:22;;;;;;;18.63;16.42;;;;;;;5.73;100.00;96577.72;5084140;28;20036;-64
2023/01/01 02:45:47;;;;;;;20.85;16.77;;;;;;;5.69;100.00;96576.25;5086712;28;20059;-64
2023/01/01 02:48:40;;;;;;;20.55;15.20;;;;;;;5.64;100.00;96577.44;5082316;28;20027;-65
2023/01/01 02:51:29;;;;;;;18.90;16.05;;;;;;;5.62;100.00;96585.34;5072478;28;20098;-64
2023/01/01 02:54:15;;;;;;;20.02;15.95;;;;;;;5.58;100.00;96583.84;5074002;28;20051;-65
2023/01/01 02:56:53;;;;;;;21.02;16.08;;;;;;;5.58;100.00;96589.94;5080051;28;20028;-71
2023/01/01 03:02:32;;;;;;;18.80;15.07;;;;;;;5.58;100.00;96584.69;5083144;28;20034;-64
2023/01/01 03:05:20;;;;;;;;;;;;;;;5.68;100.00;96582.41;5079456;28;20023;-64
2023/01/01 03:07:46;;;;;;;17.70;13.95;;;;;;;5.62;100.00;96589.75;5072725;28;19916;-64
2023/01/01 03:10:30;;;;;;;18.73;15.50;;;;;;;5.49;100.00;96587.00;5082051;28;20055;-64
2023/01/01 03:13:07;;;;;;;22.73;15.90;;;;;;;5.42;100.00;96595.19;5078523;28;20036;-64
2023/01/01 03:15:41;;;;;;;19.80;16.25;;;;;;;5.34;100.00;96597.38;5084790;28;20031;-71
2023/01/01 03:18:18;;;;;;;26.02;19.33;;;;;;;5.25;100.00;96603.16;5086949;28;20032;-62
2023/01/01 03:20:47;;;;;;;28.90;23.25;;;;;;;5.20;100.00;96586.91;5090049;28;20494;-74
2023/01/01 03:23:26;;;;;;;31.48;25.38;;;;;;;5.19;100.00;96587.81;5088895;28;20024;-74
2023/01/01 03:25:56;;;;;;;26.35;19.30;;;;;;;5.17;100.00;96574.84;5089621;28;20060;-74
2023/01/01 03:28:27;;;;;;;21.23;17.15;;;;;;;5.21;100.00;96585.97;5089997;28;20036;-74
2023/01/01 03:30:55;;;;;;;24.58;17.48;;;;;;;5.19;100.00;96583.44;5089140;28;20023;-74
2023/01/01 03:33:37;;;;;;;20.10;16.92;;;;;;;5.53;100.00;96601.56;5089700;28;20032;-74
2023/01/01 03:36:08;;;;;;;20.70;15.57;;;;;;;5.36;100.00;96598.13;5078828;28;20059;-74
2023/01/01 03:38:38;;;;;;;20.30;16.13;;;;;;;5.32;100.00;96598.41;5077923;28;20123;-62
2023/01/01 03:41:10;;;;;;;21.73;15.75;;;;;;;5.25;100.00;96592.69;5088934;28;20059;-62
2023/01/01 03:43:41;;;;;;;21.05;16.20;;;;;;;5.33;100.00;96593.09;5083960;28;20032;-62
2023/01/01 03:46:08;;;;;;;20.20;15.80;;;;;;;5.25;100.00;96592.69;5080366;28;20063;-62
2023/01/01 03:48:54;;;;;;;21.65;16.58;;;;;;;5.16;100.00;96579.22;5063855;28;20109;-62
2023/01/01 03:51:38;;;;;;;26.73;20.83;;;;;;;5.07;100.00;96584.97;5081940;28;20039;-62
2023/01/01 03:54:23;;;;;;;19.48;15.95;;;;;;;5.01;100.00;96577.50;5076718;28;20036;-71
2023/01/01 03:57:06;;;;;;;20.45;16.05;;;;;;;4.96;100.00;96582.09;5086229;28;20090;-62
2023/01/01 03:59:41;;;;;;;21.15;17.45;;;;;;;5.03;100.00;96578.25;5087629;28;20573;-64
2023/01/01 04:02:10;;;;;;;24.80;20.40;;;;;;;5.10;100.00;96581.34;5083102;28;20116;-63
2023/01/01 04:04:35;;;;;;;29.27;20.45;;;;;;;5.07;100.00;96584.09;5081960;28;20286;-63
2023/01/01 04:07:01;;;;;;;29.20;20.90;;;;;;;5.03;100.00;96596.50;5089348;28;20044;-63
2023/01/01 04:09:30;;;;;;;77.85;46.75;;;;;;;5.01;100.00;96593.97;5062076;28;20036;-63
2023/01/01 04:12:03;;;;;;;68.03;43.05;;;;;;;5.04;100.00;96589.50;5089465;28;20046;-63
2023/01/01 04:14:34;;;;;;;27.52;22.20;;;;;;;5.02;100.00;96597.44;5086986;28;20032;-71
2023/01/01 04:17:01;;;;;;;25.98;17.83;;;;;;;5.01;100.00;96607.03;5086025;28;20103;-70
2023/01/01 04:19:27;;;;;;;23.52;16.15;;;;;;;4.96;100.00;96605.59;5080489;28;20033;-67
2023/01/01 04:21:53;;;;;;;21.42;15.27;;;;;;;4.95;100.00;96596.06;5083515;28;20393;-67
2023/01/01 04:24:19;;;;;;;19.15;15.80;;;;;;;5.10;100.00;96600.47;5087475;28;20035;-67
2023/01/01 04:26:44;;;;;;;17.30;15.20;;;;;;;4.97;100.00;96599.44;5083781;28;20089;-67
2023/01/01 04:29:09;;;;;;;39.40;25.65;;;;;;;4.91;100.00;96603.25;5084334;28;20562;-67
2023/01/01 04:31:35;;;;;;;19.15;15.68;;;;;;;4.91;100.00;96611.09;5081978;28;20094;-67
2023/01/01 04:34:00;;;;;;;16.17;13.85;;;;;;;4.90;100.00;96613.75;5074821;28;20033;-64
2023/01/01 04:36:26;;;;;;;21.90;16.95;;;;;;;4.93;100.00;96611.84;5082525;28;20574;-73
2023/01/01 04:38:51;;;;;;;22.70;19.63;;;;;;;4.96;100.00;96600.38;5071888;28;20020;-70
2023/01/01 04:41:17;;;;;;;30.77;21.77;;;;;;;4.93;100.00;96609.22;5083717;28;20512;-71
2023/01/01 04:43:48;;;;;;;19.17;17.13;;;;;;;4.91;100.00;96608.47;5081353;28;20025;-71
2023/01/01 04:46:13;;;;;;;16.98;15.18;;;;;;;4.96;100.00;96610.81;5085407;28;20108;-70
2023/01/01 04:48:39;;;;;;;16.95;14.50;;;;;;;4.91;100.00;96610.22;5081308;28;20119;-71
2023/01/01 04:51:04;;;;;;;17.48;13.90;;;;;;;4.85;100.00;96611.41;5087503;28;20024;-70
2023/01/01 04:53:32;;;;;;;14.00;12.10;;;;;;;4.85;100.00;96604.44;5084207;28;20036;-69
2023/01/01 04:56:26;;;;;;;15.52;11.93;;;;;;;4.87;100.00;96605.19;5084503;28;20036;-63
2023/01/01 04:58:51;;;;;;;15.18;13.57;;;;;;;4.97;100.00;96617.72;5090095;28;20028;-63
2023/01/01 05:01:20;;;;;;;14.32;12.13;;;;;;;4.93;100.00;96618.81;5083618;28;20036;-63
2023/01/01 05:03:46;;;;;;;13.68;11.98;;;;;;;4.90;100.00;96622.44;5079426;28;20044;-64
2023/01/01 05:06:12;;;;;;;13.20;11.80;;;;;;;4.84;100.00;96609.72;5083111;28;20044;-64
2023/01/01 05:08:40;;;;;;;12.70;11.43;;;;;;;4.80;100.00;96613.41;5078836;28;20042;-63
2023/01/01 05:11:09;;;;;;;13.32;11.25;;;;;;;4.70;100.00;96608.72;5083188;28;20077;-64
2023/01/01 05:13:36;;;;;;;13.20;11.52;;;;;;;4.85;100.00;96617.47;5079675;28;20068;-69
2023/01/01 05:16:03;;;;;;;11.68;10.48;;;;;;;4.80;100.00;96611.66;5089376;28;20036;-67
2023/01/01 05:18:28;;;;;;;13.20;11.30;;;;;;;4.75;100.00;96618.88;5093603;28;20203;-67
2023/01/01 05:20:59;;;;;;;16.98;12.65;;;;;;;4.67;100.00;96613.25;5075222;28;20047;-67
2023/01/01 05:23:24;;;;;;;13.60;12.20;;;;;;;4.70;100.00;96616.53;5083629;28;20062;-67
2023/01/01 05:25:50;;;;;;;17.30;12.77;;;;;;;4.69;100.00;96619.22;5078690;28;20441;-67
2023/01/01 05:28:15;;;;;;;20.92;17.27;;;;;;;4.63;100.00;96620.38;5075255;28;20603;-67
2023/01/01 05:30:40;;;;;;;14.52;12.77;;;;;;;4.67;100.00;96614.09;5077452;28;20446;-62
2023/01/01 05:33:06;;;;;;;15.27;12.02;;;;;;;4.73;100.00;96632.03;5085145;28;20539;-64
2023/01/01 05:35:31;;;;;;;12.80;11.50;;;;;;;4.83;100.00;96621.94;5078589;28;20630;-67
2023/01/01 05:37:56;;;;;;;18.45;10.82;;;;;;;5.06;100.00;96618.97;5074959;28;20031;-67
2023/01/01 05:40:22;;;;;;;11.95;10.68;;;;;;;4.95;100.00;96630.00;5076188;28;20063;-67
2023/01/01 05:42:47;;;;;;;12.13;10.93;;;;;;;4.85;100.00;96625.31;5083783;28;20549;-67
2023/01/01 05:45:12;;;;;;;15.77;11.25;;;;;;;4.80;100.00;96631.69;5075590;28;20047;-68
2023/01/01 05:47:38;;;;;;;16.30;13.68;;;;;;;4.74;100.00;96640.69;5078275;28;20028;-67
2023/01/01 05:50:03;;;;;;;14.20;11.50;;;;;;;4.82;100.00;96642.88;5070820;28;20035;-69
2023/01/01 05:52:29;;;;;;;11.77;10.20;;;;;;;4.75;100.00;96631.09;5075302;28;20093;-72
2023/01/01 05:54:54;;;;;;;15.10;12.20;;;;;;;4.88;100.00;96643.41;5075899;28;20168;-67
2023/01/01 05:57:19;;;;;;;10.85;9.80;;;;;;;4.96;100.00;96645.59;5094344;28;20401;-67
2023/01/01 05:59:45;;;;;;;12.55;9.88;;;;;;;4.83;100.00;96647.16;5088233;28;20482;-68
2023/01/01 06:02:10;;;;;;;10.95;9.27;;;;;;;4.77;100.00;96647.50;5090987;28;20556;-67
2023/01/01 06:04:35;;;;;;;11.57;9.18;;;;;;;4.63;100.00;96645.66;5090477;28;20044;-67
2023/01/01 06:07:01;;;;;;;11.88;9.10;;;;;;;4.59;100.00;96651.03;5091769;28;20051;-67
2023/01/01 06:09:27;;;;;;;10.93;9.48;;;;;;;4.65;100.00;96651.63;5069219;28;20169;-71
2023/01/01 06:11:52;;;;;;;12.38;10.65;;;;;;;4.62;100.00;96659.63;5084273;28;20032;-69
2023/01/01 06:14:17;;;;;;;15.50;12.27;;;;;;;4.59;100.00;96651.03;5085012;28;20115;-71
2023/01/01 06:16:44;;;;;;;15.10;11.80;;;;;;;4.53;100.00;96651.38;5084457;28;20055;-72
2023/01/01 06:19:09;;;;;;;19.20;11.00;;;;;;;4.51;100.00;96661.00;5091453;28;20077;-71
2023/01/01 06:21:35;;;;;;;11.93;10.23;;;;;;;4.44;100.00;96650.06;5091234;28;20040;-71
2023/01/01 06:24:00;;;;;;;14.50;10.07;;;;;;;4.51;100.00;96657.56;5085491;28;20033;-70
2023/01/01 06:26:28;;;;;;;12.43;11.15;;;;;;;4.49;100.00;96655.03;5081753;28;20028;-69
2023/01/01 06:28:54;;;;;;;11.20;9.65;;;;;;;4.50;100.00;96659.31;5080613;28;20063;-69
2023/01/01 06:31:20;;;;;;;12.50;10.70;;;;;;;4.47;100.00;96656.88;5089054;28;20095;-64
2023/01/01 06:33:46;;;;;;;14.32;10.32;;;;;;;4.46;100.00;96651.75;5080543;28;20032;-66
2023/01/01 06:36:13;;;;;;;12.38;10.95;;;;;;;4.51;100.00;96655.78;5085723;28;20448;-65
2023/01/01 06:38:42;;;;;;;10.73;9.65;;;;;;;4.49;100.00;96647.19;5081013;28;20028;-65
2023/01/01 06:41:10;;;;;;;12.18;10.27;;;;;;;4.54;100.00;96640.00;5089043;28;20562;-64
2023/01/01 06:43:36;;;;;;;11.73;10.50;;;;;;;4.54;100.00;96650.44;5070534;28;20461;-63
2023/01/01 06:46:14;;;;;;;10.93;9.70;;;;;;;4.68;100.00;96654.06;5084200;28;20083;-65
2023/01/01 06:48:40;;;;;;;10.43;9.38;;;;;;;4.61;100.00;96645.72;5080371;28;20040;-70
2023/01/01 06:51:13;;;;;;;10.52;9.35;;;;;;;4.72;100.00;96656.44;5088325;28;20035;-64
2023/01/01 06:53:39;;;;;;;12.85;11.60;;;;;;;4.76;100.00;96648.44;5079551;28;20127;-62
2023/01/01 06:56:05;;;;;;;11.63;10.45;;;;;;;4.58;100.00;96654.56;5084835;28;20115;-62
2023/01/01 06:58:31;;;;;;;10.77;9.68;;;;;;;4.49;100.00;96659.41;5086938;28;20128;-62
2023/01/01 07:01:09;;;;;;;10.95;9.27;;;;;;;4.41;100.00;96639.78;5083135;28;20033;-63
2023/01/01 07:03:36;;;;;;;12.48;10.52;;;;;;;4.63;100.00;96643.84;5078837;28;20124;-63
2023/01/01 07:06:02;;;;;;;13.23;9.95;;;;;;;4.61;100.00;96631.84;5081454;28;20074;-63
2023/01/01 07:08:27;;;;;;;11.15;10.05;;;;;;;4.44;100.00;96629.22;5083620;28;20048;-68
2023/01/01 07:10:55;;;;;;;12.60;10.20;;;;;;;4.44;100.00;96625.75;5087538;28;20103;-71
2023/01/01 07:13:21;;;;;;;16.08;11.38;;;;;;;4.37;100.00;96621.78;5076816;28;20466;-71
2023/01/01 07:15:46;;;;;;;11.85;10.30;;;;;;;4.52;100.00;96628.78;5070473;28;20060;-71
2023/01/01 07:18:11;;;;;;;16.35;10.13;;;;;;;4.46;100.00;96616.06;5088875;28;20429;-71
2023/01/01 07:20:37;;;;;;;10.60;9.57;;;;;;;4.56;100.00;96614.69;5071405;28;20037;-71
2023/01/01 07:23:02;;;;;;;13.30;10.32;;;;;;;4.55;100.00;96610.38;5077731;28;20048;-71
2023/01/01 07:25:27;;;;;;;11.45;10.25;;;;;;;4.61;100.00;96614.41;5076902;28;20075;-70
2023/01/01 07:27:53;;;;;;;14.40;9.55;;;;;;;4.77;100.00;96614.44;5076459;28;20063;-65
2023/01/01 07:30:18;;;;;;;9.65;8.10;;;;;;;4.75;100.00;96610.22;5090664;28;20089;-72
2023/01/01 07:32:43;;;;;;;9.98;7.63;;;;;;;4.79;100.00;96603.91;5089056;28;20464;-72
2023/01/01 07:35:09;;;;;;;13.07;7.07;;;;;;;4.99;100.00;96602.84;5090062;28;20039;-72
2023/01/01 07:37:35;;;;;;;11.00;8.00;;;;;;;5.17;100.00;96606.19;5087776;28;20051;-72
2023/01/01 07:40:00;;;;;;;25.90;19.92;;;;;;;5.32;100.00;96606.25;5088451;28;20040;-72
2023/01/01 07:42:25;;;;;;;13.65;11.32;;;;;;;5.39;100.00;96616.25;5086882;28;20032;-72
2023/01/01 07:44:51;;;;;;;12.95;9.57;;;;;;;5.25;100.00;96619.63;5088713;28;20040;-72
2023/01/01 07:47:22;;;;;;;17.10;14.90;;;;;;;5.18;100.00;96623.53;5085268;28;20078;-69
2023/01/01 07:49:47;;;;;;;12.40;11.10;;;;;;;4.92;100.00;96622.34;5087503;28;20036;-63
2023/01/01 07:52:13;;;;;;;12.73;10.38;;;;;;;4.77;100.00;96611.84;5087999;28;20032;-63
2023/01/01 07:54:38;;;;;;;13.85;11.18;;;;;;;4.76;100.00;96632.78;5085703;28;20048;-63
2023/01/01 07:57:03;;;;;;;15.20;11.60;;;;;;;4.69;100.00;96621.84;5083177;28;20060;-64
2023/01/01 07:59:29;;;;;;;16.42;12.23;;;;;;;4.71;100.00;96625.19;5082877;28;20051;-64
2023/01/01 08:01:54;;;;;;;11.02;9.82;;;;;;;4.97;100.00;96633.38;5079789;28;20028;-64
2023/01/01 08:04:19;;;;;;;13.23;9.27;;;;;;;5.04;100.00;96637.34;5083474;28;20038;-63
2023/01/01 08:06:45;;;;;;;11.57;10.25;;;;;;;4.99;100.00;96634.16;5078258;28;20117;-68
2023/01/01 08:09:10;;;;;;;12.20;10.60;;;;;;;4.96;100.00;96634.28;5079853;28;20081;-70
2023/01/01 08:11:35;;;;;;;16.17;14.57;;;;;;;5.00;100.00;96641.06;5076829;28;20455;-70
2023/01/01 08:14:01;;;;;;;10.07;9.07;;;;;;;5.14;100.00;96642.91;5084546;28;20111;-70
2023/01/01 08:16:26;;;;;;;10.32;9.43;;;;;;;5.48;100.00;96633.16;5084016;28;20035;-70
2023/01/01 08:18:51;;;;;;;14.90;13.43;;;;;;;5.48;100.00;96632.34;5087020;28;20020;-70
2023/01/01 08:21:17;;;;;;;11.38;10.30;;;;;;;5.50;100.00;96630.47;5086521;28;20032;-70
2023/01/01 08:23:42;;;;;;;11.45;9.70;;;;;;;5.37;100.00;96630.34;5084273;28;20059;-70
2023/01/01 08:26:14;;;;;;;11.63;10.45;;;;;;;5.32;100.00;96633.19;5087213;28;20052;-64
2023/01/01 08:28:39;;;;;;;10.82;9.93;;;;;;;5.23;100.00;96637.16;5088805;28;20698;-76
2023/01/01 08:31:05;;;;;;;10.27;9.32;;;;;;;5.42;100.00;96626.53;5080583;28;20110;-75
2023/01/01 08:33:30;;;;;;;9.77;8.68;;;;;;;5.40;100.00;96635.38;5080076;28;20028;-76
2023/01/01 08:35:55;;;;;;;10.35;9.35;;;;;;;5.31;100.00;96631.50;5084888;28;20119;-76
2023/01/01 08:38:21;;;;;;;11.38;9.63;;;;;;;5.37;100.00;96628.53;5087450;28;20032;-76
2023/01/01 08:40:46;;;;;;;9.95;9.05;;;;;;;5.37;100.00;96631.16;5084635;28;20032;-76
2023/01/01 08:43:11;;;;;;;8.15;7.45;;;;;;;5.43;100.00;96627.38;5085585;28;20043;-76
2023/01/01 08:45:37;;;;;;;9.05;7.60;;;;;;;5.54;100.00;96621.53;5083311;28;20051;-76
2023/01/01 08:48:02;;;;;;;9.38;7.43;;;;;;;5.55;100.00;96621.47;5084598;28;20030;-62
2023/01/01 08:50:28;;;;;;;12.30;11.10;;;;;;;5.52;100.00;96621.59;5068758;28;20509;-62
2023/01/01 08:52:53;;;;;;;8.32;7.63;;;;;;;5.63;100.00;96623.59;5085947;28;20028;-62
2023/01/01 08:55:18;;;;;;;8.55;7.13;;;;;;;5.58;100.00;96628.25;5081612;28;20044;-61
2023/01/01 08:57:44;;;;;;;7.75;6.88;;;;;;;5.82;100.00;96622.53;5085540;28;20036;-61
2023/01/01 09:00:10;;;;;;;15.75;13.88;;;;;;;5.84;100.00;96625.91;5081318;28;20039;-62
2023/01/01 09:02:35;;;;;;;9.77;8.88;;;;;;;5.88;100.00;96630.88;5086636;28;20059;-71
2023/01/01 09:05:01;;;;;;;8.70;7.78;;;;;;;5.77;100.00;96624.59;5085858;28;20060;-73
2023/01/01 09:07:26;;;;;;;9.48;8.57;;;;;;;5.76;100.00;96643.81;5088247;28;20074;-79
2023/01/01 09:09:51;;;;;;;13.57;8.30;;;;;;;5.84;100.00;96618.06;5073428;28;20056;-78
2023/01/01 09:12:17;;;;;;;8.25;7.55;;;;;;;5.81;100.00;96618.25;5083186;28;20047;-77
2023/01/01 09:14:42;;;;;;;10.15;9.05;;;;;;;5.70;100.00;96619.72;5083949;28;20127;-78
2023/01/01 09:17:07;;;;;;;8.70;7.85;;;;;;;5.68;100.00;96620.72;5065605;28;20028;-75
2023/01/01 09:19:33;;;;;;;14.07;7.53;;;;;;;5.90;100.00;96615.09;5085411;28;20054;-74
2023/01/01 09:21:58;;;;;;;8.82;8.00;;;;;;;5.97;100.00;96610.38;5086126;28;20024;-78
2023/01/01 09:24:23;;;;;;;8.30;7.60;;;;;;;6.00;100.00;96618.03;5085286;28;20028;-61
2023/01/01 09:26:49;;;;;;;12.20;10.75;;;;;;;5.97;100.00;96619.03;5085464;28;20035;-68
2023/01/01 09:29:19;;;;;;;13.15;10.10;;;;;;;6.00;100.00;96624.06;5077251;28;20036;-67
2023/01/01 09:31:45;;;;;;;20.98;15.00;;;;;;;5.91;100.00;96619.41;5084453;28;20064;-68
2023/01/01 09:34:10;;;;;;;11.60;9.77;;;;;;;6.00;100.00;96621.47;5090087;28;20426;-65
2023/01/01 09:36:36;;;;;;;11.40;8.82;;;;;;;5.88;100.00;96615.19;5083373;28;20055;-67
2023/01/01 09:39:02;;;;;;;15.40;9.27;;;;;;;6.02;100.00;96617.00;5084437;28;20043;-67
2023/01/01 09:41:42;;;;;;;9.80;8.90;;;;;;;6.41;100.00;96611.25;5084274;28;20097;-71
2023/01/01 09:44:38;;;;;;;11.77;8.55;;;;;;;6.95;100.00;96609.69;5085600;28;20055;-63
2023/01/01 09:47:17;;;;;;;9.23;8.37;;;;;;;7.48;100.00;96615.06;5069929;28;20107;-69
2023/01/01 09:49:45;;;;;;;7.80;7.07;;;;;;;7.77;100.00;96614.09;5088067;28;20314;-68
2023/01/01 09:52:13;;;;;;;7.40;6.63;;;;;;;8.01;100.00;96601.94;5088096;28;20073;-71
2023/01/01 09:54:43;;;;;;;7.75;7.05;;;;;;;8.27;100.00;96606.38;5088139;28;20024;-70
2023/01/01 09:57:11;;;;;;;6.20;5.45;;;;;;;8.54;100.00;96598.41;5098846;28;20036;-69
2023/01/01 09:59:37;;;;;;;8.02;5.10;;;;;;;8.87;100.00;96586.47;5082769;28;20058;-69
2023/01/01 10:02:21;;;;;;;5.50;5.00;;;;;;;9.06;100.00;96587.78;5089892;28;20024;-62
2023/01/01 10:04:53;;;;;;;5.72;5.13;;;;;;;9.32;100.00;96591.16;5082889;28;20540;-64
2023/01/01 10:07:31;;;;;;;6.03;5.50;;;;;;;9.54;100.00;96596.63;5085377;28;20557;-63
2023/01/01 10:10:30;;;;;;;5.68;5.10;;;;;;;9.81;100.00;96583.22;5077768;28;20036;-64
2023/01/01 10:13:07;;;;;;;7.03;6.07;;;;;;;10.00;100.00;96581.84;5078150;28;20036;-64
2023/01/01 10:15:38;;;;;;;7.20;6.60;;;;;;;10.06;100.00;96581.34;5088914;28;20039;-67
2023/01/01 10:18:11;;;;;;;8.38;7.47;;;;;;;10.15;100.00;96575.38;5085097;28;20070;-66
2023/01/01 10:21:04;;;;;;;8.00;6.53;;;;;;;10.24;100.00;96581.72;5102321;28;20085;-63
2023/01/01 10:23:56;;;;;;;4.85;4.40;;;;;;;10.20;100.00;96568.94;5062317;28;20119;-66
2023/01/01 10:26:26;;;;;;;7.22;6.50;;;;;;;9.94;100.00;96569.97;5078849;28;20063;-66
2023/01/01 10:29:17;;;;;;;8.05;6.30;;;;;;;9.90;100.00;96560.66;5091860;28;20032;-67
2023/01/01 10:31:46;;;;;;;7.45;6.45;;;;;;;9.95;100.00;96558.50;5091042;28;20039;-67
2023/01/01 10:34:18;;;;;;;9.02;5.53;;;;;;;10.02;100.00;96557.06;5087668;28;20032;-67
2023/01/01 10:36:45;;;;;;;5.78;5.22;;;;;;;10.29;100.00;96550.66;5080555;28;20028;-66
2023/01/01 10:39:17;;;;;;;6.82;4.35;;;;;;;10.39;100.00;96549.94;5074859;28;20028;-69
2023/01/01 10:41:44;;;;;;;7.10;4.72;;;;;;;10.48;100.00;96541.31;5086633;28;20055;-62
2023/01/01 10:44:11;;;;;;;5.57;5.10;;;;;;;10.63;100.00;96539.31;5085741;28;20079;-66
2023/01/01 10:46:41;;;;;;;6.10;4.80;;;;;;;10.73;100.00;96542.06;5088271;28;20401;-66
2023/01/01 10:49:12;;;;;;;5.00;4.47;;;;;;;10.95;100.00;96541.16;5086015;28;20121;-65
2023/01/01 10:51:45;;;;;;;10.00;7.03;;;;;;;11.13;100.00;96535.38;5080536;28;20094;-66
2023/01/01 10:54:25;;;;;;;4.40;3.67;;;;;;;11.35;100.00;96534.44;5077589;28;20525;-65
2023/01/01 10:56:51;;;;;;;4.65;3.08;;;;;;;11.60;100.00;96529.75;5075917;28;20071;-66
2023/01/01 10:59:37;;;;;;;5.47;4.38;;;;;;;11.68;96.06;96535.25;5078975;28;20118;-69
2023/01/01 11:02:14;;;;;;;3.25;2.90;;;;;;;11.90;94.26;96518.44;5083098;28;20024;-65
2023/01/01 11:04:39;;;;;;;5.13;3.53;;;;;;;11.93;96.91;96527.06;5084930;28;20115;-62
2023/01/01 11:07:06;;;;;;;3.67;3.10;;;;;;;11.95;94.21;96525.97;5087810;28;20484;-62
2023/01/01 11:09:35;;;;;;;4.13;3.60;;;;;;;12.02;94.50;96516.59;5094767;28;20094;-62
2023/01/01 11:12:04;;;;;;;9.10;3.42;;;;;;;12.16;93.82;96517.22;5098056;28;20035;-62
2023/01/01 11:14:52;;;;;;;4.60;3.60;;;;;;;11.98;92.87;96515.16;5088956;28;20032;-62
2023/01/01 11:17:25;;;;;;;3.20;2.90;;;;;;;12.27;91.17;96511.03;5074835;28;20034;-62
2023/01/01 11:19:52;;;;;;;5.05;2.45;;;;;;;12.36;87.19;96509.41;5092809;28;20062;-67
2023/01/01 11:22:52;;;;;;;4.93;3.78;;;;;;;12.15;91.75;96512.91;5088866;28;20031;-69
2023/01/01 11:25:26;;;;;;;5.55;3.03;;;;;;;12.06;89.50;96506.63;5019170;28;20092;-69
2023/01/01 11:28:18;;;;;;;4.30;3.58;;;;;;;12.02;91.35;96492.84;5077047;28;20040;-68
2023/01/01 11:30:59;;;;;;;5.45;4.28;;;;;;;11.92;93.02;96491.94;5075138;28;20414;-69
2023/01/01 11:33:26;;;;;;;4.47;3.40;;;;;;;12.28;92.69;96489.78;5083750;28;20032;-69
2023/01/01 11:35:55;;;;;;;4.72;4.32;;;;;;;12.36;89.28;96485.63;5086621;28;20164;-69
2023/01/01 11:38:22;;;;;;;5.70;4.30;;;;;;;12.51;91.06;96472.88;5084998;28;20039;-62